sensor_id;sensor_type;location;lat;lon;timestamp;temperature;humidity
43651;DHT22;29247;50.944;5.382;2023-12-04T00:01:53;18.00;58.20
43651;DHT22;29247;50.944;5.382;2023-12-04T00:04:19;18.00;58.20
43651;DHT22;29247;50.944;5.382;2023-12-04T00:06:44;18.00;58.30
43651;DHT22;29247;50.944;5.382;2023-12-04T00:09:10;18.00;58.40
43651;DHT22;29247;50.944;5.382;2023-12-04T00:11:36;17.90;58.30
43651;DHT22;29247;50.944;5.382;2023-12-04T00:14:01;17.90;58.40
43651;DHT22;29247;50.944;5.382;2023-12-04T00:16:27;17.90;58.40
43651;DHT22;29247;50.944;5.382;2023-12-04T00:18:53;17.90;58.50
43651;DHT22;29247;50.944;5.382;2023-12-04T00:21:18;17.80;58.50
43651;DHT22;29247;50.944;5.382;2023-12-04T00:23:44;17.80;58.50
43651;DHT22;29247;50.944;5.382;2023-12-04T00:26:11;17.80;58.60
43651;DHT22;29247;50.944;5.382;2023-12-04T00:28:37;17.70;58.60
43651;DHT22;29247;50.944;5.382;2023-12-04T00:31:03;17.70;58.60
43651;DHT22;29247;50.944;5.382;2023-12-04T00:33:31;17.70;58.70
43651;DHT22;29247;50.944;5.382;2023-12-04T00:35:59;17.70;58.70
43651;DHT22;29247;50.944;5.382;2023-12-04T00:38:27;17.70;58.80
43651;DHT22;29247;50.944;5.382;2023-12-04T00:41:05;17.60;58.70
43651;DHT22;29247;50.944;5.382;2023-12-04T00:43:31;17.60;58.80
43651;DHT22;29247;50.944;5.382;2023-12-04T00:45:56;17.60;58.80
43651;DHT22;29247;50.944;5.382;2023-12-04T00:48:22;17.60;58.90
43651;DHT22;29247;50.944;5.382;2023-12-04T00:50:48;17.50;58.90
43651;DHT22;29247;50.944;5.382;2023-12-04T00:53:13;17.50;58.90
43651;DHT22;29247;50.944;5.382;2023-12-04T00:55:42;17.50;59.60
43651;DHT22;29247;50.944;5.382;2023-12-04T00:58:07;17.50;59.10
43651;DHT22;29247;50.944;5.382;2023-12-04T01:00:35;17.50;59.20
43651;DHT22;29247;50.944;5.382;2023-12-04T01:03:01;17.50;59.20
43651;DHT22;29247;50.944;5.382;2023-12-04T01:05:26;17.50;59.30
43651;DHT22;29247;50.944;5.382;2023-12-04T01:07:52;17.50;59.30
43651;DHT22;29247;50.944;5.382;2023-12-04T01:10:20;17.60;59.50
43651;DHT22;29247;50.944;5.382;2023-12-04T01:12:49;17.60;59.50
43651;DHT22;29247;50.944;5.382;2023-12-04T01:15:14;17.60;59.50
43651;DHT22;29247;50.944;5.382;2023-12-04T01:17:40;17.70;59.60
43651;DHT22;29247;50.944;5.382;2023-12-04T01:20:09;17.70;59.60
43651;DHT22;29247;50.944;5.382;2023-12-04T01:22:34;17.70;59.60
43651;DHT22;29247;50.944;5.382;2023-12-04T01:25:00;17.80;59.60
43651;DHT22;29247;50.944;5.382;2023-12-04T01:27:26;17.80;59.40
43651;DHT22;29247;50.944;5.382;2023-12-04T01:29:51;17.90;59.40
43651;DHT22;29247;50.944;5.382;2023-12-04T01:32:17;17.90;59.40
43651;DHT22;29247;50.944;5.382;2023-12-04T01:34:45;17.90;59.40
43651;DHT22;29247;50.944;5.382;2023-12-04T01:37:11;18.00;59.40
43651;DHT22;29247;50.944;5.382;2023-12-04T01:39:37;18.10;59.30
43651;DHT22;29247;50.944;5.382;2023-12-04T01:42:03;18.10;59.30
43651;DHT22;29247;50.944;5.382;2023-12-04T01:44:28;18.10;59.20
43651;DHT22;29247;50.944;5.382;2023-12-04T01:46:56;18.20;59.10
43651;DHT22;29247;50.944;5.382;2023-12-04T01:49:22;18.30;59.10
43651;DHT22;29247;50.944;5.382;2023-12-04T01:51:48;18.30;59.00
43651;DHT22;29247;50.944;5.382;2023-12-04T01:54:14;18.40;59.00
43651;DHT22;29247;50.944;5.382;2023-12-04T01:56:43;18.40;58.90
43651;DHT22;29247;50.944;5.382;2023-12-04T01:59:09;18.50;58.80
43651;DHT22;29247;50.944;5.382;2023-12-04T02:01:36;18.50;58.70
43651;DHT22;29247;50.944;5.382;2023-12-04T02:04:02;18.50;58.60
43651;DHT22;29247;50.944;5.382;2023-12-04T02:06:30;18.50;58.50
43651;DHT22;29247;50.944;5.382;2023-12-04T02:08:56;18.60;58.50
43651;DHT22;29247;50.944;5.382;2023-12-04T02:11:27;18.60;58.40
43651;DHT22;29247;50.944;5.382;2023-12-04T02:13:52;18.60;58.30
43651;DHT22;29247;50.944;5.382;2023-12-04T02:16:19;18.60;58.30
43651;DHT22;29247;50.944;5.382;2023-12-04T02:18:46;18.60;58.20
43651;DHT22;29247;50.944;5.382;2023-12-04T02:21:11;18.60;58.20
43651;DHT22;29247;50.944;5.382;2023-12-04T02:23:40;18.60;58.10
43651;DHT22;29247;50.944;5.382;2023-12-04T02:26:10;18.60;58.10
43651;DHT22;29247;50.944;5.382;2023-12-04T02:28:48;18.60;58.10
43651;DHT22;29247;50.944;5.382;2023-12-04T02:31:17;18.60;58.10
43651;DHT22;29247;50.944;5.382;2023-12-04T02:33:45;18.60;58.00
43651;DHT22;29247;50.944;5.382;2023-12-04T02:36:15;18.60;58.00
43651;DHT22;29247;50.944;5.382;2023-12-04T02:38:41;18.60;58.00
43651;DHT22;29247;50.944;5.382;2023-12-04T02:41:11;18.60;58.00
43651;DHT22;29247;50.944;5.382;2023-12-04T02:43:39;18.60;58.00
43651;DHT22;29247;50.944;5.382;2023-12-04T02:46:05;18.60;58.00
43651;DHT22;29247;50.944;5.382;2023-12-04T02:48:31;18.60;58.00
43651;DHT22;29247;50.944;5.382;2023-12-04T02:50:56;18.50;58.00
43651;DHT22;29247;50.944;5.382;2023-12-04T02:53:25;18.50;58.00
43651;DHT22;29247;50.944;5.382;2023-12-04T02:55:53;18.50;58.00
43651;DHT22;29247;50.944;5.382;2023-12-04T02:58:19;18.50;58.10
43651;DHT22;29247;50.944;5.382;2023-12-04T03:00:44;18.50;58.20
43651;DHT22;29247;50.944;5.382;2023-12-04T03:03:10;18.50;58.20
43651;DHT22;29247;50.944;5.382;2023-12-04T03:05:36;18.50;58.20
43651;DHT22;29247;50.944;5.382;2023-12-04T03:08:01;18.40;58.20
43651;DHT22;29247;50.944;5.382;2023-12-04T03:10:27;18.40;58.20
43651;DHT22;29247;50.944;5.382;2023-12-04T03:12:55;18.40;58.20
43651;DHT22;29247;50.944;5.382;2023-12-04T03:15:23;18.30;58.10
43651;DHT22;29247;50.944;5.382;2023-12-04T03:17:49;18.30;58.10
43651;DHT22;29247;50.944;5.382;2023-12-04T03:20:17;18.30;58.10
43651;DHT22;29247;50.944;5.382;2023-12-04T03:22:45;18.30;58.10
43651;DHT22;29247;50.944;5.382;2023-12-04T03:25:10;18.30;58.10
43651;DHT22;29247;50.944;5.382;2023-12-04T03:27:38;18.30;58.10
43651;DHT22;29247;50.944;5.382;2023-12-04T03:30:04;18.20;58.10
43651;DHT22;29247;50.944;5.382;2023-12-04T03:32:34;18.20;58.20
43651;DHT22;29247;50.944;5.382;2023-12-04T03:35:02;18.10;58.10
43651;DHT22;29247;50.944;5.382;2023-12-04T03:37:30;18.10;58.20
43651;DHT22;29247;50.944;5.382;2023-12-04T03:39:56;18.10;58.20
43651;DHT22;29247;50.944;5.382;2023-12-04T03:42:22;18.10;58.30
43651;DHT22;29247;50.944;5.382;2023-12-04T03:44:47;18.00;58.30
43651;DHT22;29247;50.944;5.382;2023-12-04T03:47:13;18.00;58.40
43651;DHT22;29247;50.944;5.382;2023-12-04T03:49:41;18.00;58.40
43651;DHT22;29247;50.944;5.382;2023-12-04T03:52:06;18.00;58.40
43651;DHT22;29247;50.944;5.382;2023-12-04T03:54:32;18.00;58.50
43651;DHT22;29247;50.944;5.382;2023-12-04T03:56:58;17.90;58.50
43651;DHT22;29247;50.944;5.382;2023-12-04T03:59:23;17.90;58.60
43651;DHT22;29247;50.944;5.382;2023-12-04T04:01:49;17.90;58.60
43651;DHT22;29247;50.944;5.382;2023-12-04T04:04:14;17.90;58.60
43651;DHT22;29247;50.944;5.382;2023-12-04T04:06:40;17.80;58.60
43651;DHT22;29247;50.944;5.382;2023-12-04T04:09:06;17.80;58.70
43651;DHT22;29247;50.944;5.382;2023-12-04T04:11:31;17.80;58.70
43651;DHT22;29247;50.944;5.382;2023-12-04T04:13:57;17.70;58.80
43651;DHT22;29247;50.944;5.382;2023-12-04T04:16:25;17.70;58.80
43651;DHT22;29247;50.944;5.382;2023-12-04T04:18:50;17.70;58.80
43651;DHT22;29247;50.944;5.382;2023-12-04T04:21:16;17.70;58.90
43651;DHT22;29247;50.944;5.382;2023-12-04T04:23:46;17.70;58.90
43651;DHT22;29247;50.944;5.382;2023-12-04T04:26:12;17.60;58.90
43651;DHT22;29247;50.944;5.382;2023-12-04T04:28:37;17.60;59.00
43651;DHT22;29247;50.944;5.382;2023-12-04T04:31:03;17.60;59.00
43651;DHT22;29247;50.944;5.382;2023-12-04T04:33:29;17.60;59.10
43651;DHT22;29247;50.944;5.382;2023-12-04T04:35:54;17.50;59.00
43651;DHT22;29247;50.944;5.382;2023-12-04T04:38:20;17.50;59.10
43651;DHT22;29247;50.944;5.382;2023-12-04T04:40:46;17.50;59.10
43651;DHT22;29247;50.944;5.382;2023-12-04T04:43:14;17.50;59.20
43651;DHT22;29247;50.944;5.382;2023-12-04T04:45:42;17.50;59.20
43651;DHT22;29247;50.944;5.382;2023-12-04T04:48:07;17.50;59.30
43651;DHT22;29247;50.944;5.382;2023-12-04T04:50:35;17.40;59.30
43651;DHT22;29247;50.944;5.382;2023-12-04T04:53:01;17.40;59.40
43651;DHT22;29247;50.944;5.382;2023-12-04T04:55:27;17.40;59.40
43651;DHT22;29247;50.944;5.382;2023-12-04T04:57:52;17.40;59.50
43651;DHT22;29247;50.944;5.382;2023-12-04T05:00:18;17.40;59.60
43651;DHT22;29247;50.944;5.382;2023-12-04T05:02:44;17.40;59.70
43651;DHT22;29247;50.944;5.382;2023-12-04T05:05:11;17.50;59.70
43651;DHT22;29247;50.944;5.382;2023-12-04T05:07:39;17.50;59.70
43651;DHT22;29247;50.944;5.382;2023-12-04T05:10:07;17.50;59.70
43651;DHT22;29247;50.944;5.382;2023-12-04T05:12:32;17.50;59.70
43651;DHT22;29247;50.944;5.382;2023-12-04T05:14:58;17.60;59.80
43651;DHT22;29247;50.944;5.382;2023-12-04T05:17:26;17.60;59.70
43651;DHT22;29247;50.944;5.382;2023-12-04T05:19:52;17.60;59.60
43651;DHT22;29247;50.944;5.382;2023-12-04T05:22:17;17.70;59.70
43651;DHT22;29247;50.944;5.382;2023-12-04T05:24:43;17.70;59.70
43651;DHT22;29247;50.944;5.382;2023-12-04T05:27:09;17.80;59.70
43651;DHT22;29247;50.944;5.382;2023-12-04T05:29:47;17.80;59.70
43651;DHT22;29247;50.944;5.382;2023-12-04T05:32:13;17.90;59.60
43651;DHT22;29247;50.944;5.382;2023-12-04T05:34:40;17.90;59.60
43651;DHT22;29247;50.944;5.382;2023-12-04T05:37:09;18.00;59.60
43651;DHT22;29247;50.944;5.382;2023-12-04T05:39:44;18.00;59.50
43651;DHT22;29247;50.944;5.382;2023-12-04T05:42:09;18.10;59.50
43651;DHT22;29247;50.944;5.382;2023-12-04T05:44:35;18.10;59.40
43651;DHT22;29247;50.944;5.382;2023-12-04T05:47:03;18.20;59.40
43651;DHT22;29247;50.944;5.382;2023-12-04T05:49:29;18.20;59.20
43651;DHT22;29247;50.944;5.382;2023-12-04T05:51:56;18.30;59.20
43651;DHT22;29247;50.944;5.382;2023-12-04T05:54:21;18.40;59.20
43651;DHT22;29247;50.944;5.382;2023-12-04T05:56:47;18.40;59.00
43651;DHT22;29247;50.944;5.382;2023-12-04T05:59:13;18.50;59.00
43651;DHT22;29247;50.944;5.382;2023-12-04T06:01:38;18.50;58.80
43651;DHT22;29247;50.944;5.382;2023-12-04T06:04:06;18.60;58.80
43651;DHT22;29247;50.944;5.382;2023-12-04T06:06:34;18.70;58.70
43651;DHT22;29247;50.944;5.382;2023-12-04T06:09:02;18.70;58.70
43651;DHT22;29247;50.944;5.382;2023-12-04T06:11:28;18.80;58.70
43651;DHT22;29247;50.944;5.382;2023-12-04T06:13:53;18.80;58.60
43651;DHT22;29247;50.944;5.382;2023-12-04T06:16:19;18.90;58.60
43651;DHT22;29247;50.944;5.382;2023-12-04T06:18:44;18.90;58.30
43651;DHT22;29247;50.944;5.382;2023-12-04T06:21:13;18.90;58.10
43651;DHT22;29247;50.944;5.382;2023-12-04T06:23:38;19.00;57.80
43651;DHT22;29247;50.944;5.382;2023-12-04T06:26:07;18.90;57.60
43651;DHT22;29247;50.944;5.382;2023-12-04T06:28:36;19.00;57.90
43651;DHT22;29247;50.944;5.382;2023-12-04T06:31:05;19.00;58.20
43651;DHT22;29247;50.944;5.382;2023-12-04T06:33:31;19.00;58.40
43651;DHT22;29247;50.944;5.382;2023-12-04T06:35:57;19.10;58.50
43651;DHT22;29247;50.944;5.382;2023-12-04T06:38:24;19.20;58.60
43651;DHT22;29247;50.944;5.382;2023-12-04T06:40:53;19.20;58.60
43651;DHT22;29247;50.944;5.382;2023-12-04T06:43:19;19.20;58.60
43651;DHT22;29247;50.944;5.382;2023-12-04T06:45:50;19.30;58.70
43651;DHT22;29247;50.944;5.382;2023-12-04T06:48:16;19.30;58.70
43651;DHT22;29247;50.944;5.382;2023-12-04T06:50:44;19.30;58.60
43651;DHT22;29247;50.944;5.382;2023-12-04T06:53:12;19.40;58.40
43651;DHT22;29247;50.944;5.382;2023-12-04T06:55:40;19.30;58.20
43651;DHT22;29247;50.944;5.382;2023-12-04T06:58:06;19.30;58.20
43651;DHT22;29247;50.944;5.382;2023-12-04T07:00:32;19.30;58.30
43651;DHT22;29247;50.944;5.382;2023-12-04T07:03:00;19.20;58.00
43651;DHT22;29247;50.944;5.382;2023-12-04T07:05:25;19.20;58.00
43651;DHT22;29247;50.944;5.382;2023-12-04T07:07:54;19.20;58.00
43651;DHT22;29247;50.944;5.382;2023-12-04T07:10:22;19.20;58.00
43651;DHT22;29247;50.944;5.382;2023-12-04T07:12:50;19.20;57.80
43651;DHT22;29247;50.944;5.382;2023-12-04T07:15:15;19.10;57.40
43651;DHT22;29247;50.944;5.382;2023-12-04T07:17:43;19.10;57.30
43651;DHT22;29247;50.944;5.382;2023-12-04T07:20:12;19.10;58.00
43651;DHT22;29247;50.944;5.382;2023-12-04T07:22:37;19.00;57.40
43651;DHT22;29247;50.944;5.382;2023-12-04T07:25:03;19.00;57.60
43651;DHT22;29247;50.944;5.382;2023-12-04T07:27:29;19.00;57.80
43651;DHT22;29247;50.944;5.382;2023-12-04T07:29:55;18.90;58.00
43651;DHT22;29247;50.944;5.382;2023-12-04T07:32:20;18.90;58.10
43651;DHT22;29247;50.944;5.382;2023-12-04T07:34:46;18.90;58.30
43651;DHT22;29247;50.944;5.382;2023-12-04T07:37:11;18.90;58.40
43651;DHT22;29247;50.944;5.382;2023-12-04T07:39:37;18.90;58.60
43651;DHT22;29247;50.944;5.382;2023-12-04T07:42:03;18.80;58.70
43651;DHT22;29247;50.944;5.382;2023-12-04T07:44:29;18.90;58.90
43651;DHT22;29247;50.944;5.382;2023-12-04T07:46:54;18.90;59.10
43651;DHT22;29247;50.944;5.382;2023-12-04T07:49:22;18.90;59.10
43651;DHT22;29247;50.944;5.382;2023-12-04T07:51:50;18.90;59.30
43651;DHT22;29247;50.944;5.382;2023-12-04T07:54:16;19.00;59.40
43651;DHT22;29247;50.944;5.382;2023-12-04T07:56:42;19.00;59.30
43651;DHT22;29247;50.944;5.382;2023-12-04T07:59:08;19.00;59.30
43651;DHT22;29247;50.944;5.382;2023-12-04T08:01:36;19.00;59.40
43651;DHT22;29247;50.944;5.382;2023-12-04T08:04:02;19.10;59.40
43651;DHT22;29247;50.944;5.382;2023-12-04T08:06:30;19.10;59.30
43651;DHT22;29247;50.944;5.382;2023-12-04T08:08:56;19.10;59.20
43651;DHT22;29247;50.944;5.382;2023-12-04T08:11:22;19.20;59.20
43651;DHT22;29247;50.944;5.382;2023-12-04T08:13:48;19.20;59.20
43651;DHT22;29247;50.944;5.382;2023-12-04T08:16:14;19.20;59.10
43651;DHT22;29247;50.944;5.382;2023-12-04T08:18:45;19.30;59.00
43651;DHT22;29247;50.944;5.382;2023-12-04T08:21:11;19.30;58.90
43651;DHT22;29247;50.944;5.382;2023-12-04T08:23:37;19.40;58.90
43651;DHT22;29247;50.944;5.382;2023-12-04T08:26:03;19.40;58.80
43651;DHT22;29247;50.944;5.382;2023-12-04T08:28:29;19.40;58.70
43651;DHT22;29247;50.944;5.382;2023-12-04T08:30:57;19.50;58.70
43651;DHT22;29247;50.944;5.382;2023-12-04T08:33:25;19.50;58.60
43651;DHT22;29247;50.944;5.382;2023-12-04T08:35:51;19.50;58.50
43651;DHT22;29247;50.944;5.382;2023-12-04T08:38:17;19.60;58.50
43651;DHT22;29247;50.944;5.382;2023-12-04T08:40:45;19.60;58.50
43651;DHT22;29247;50.944;5.382;2023-12-04T08:43:11;19.70;58.40
43651;DHT22;29247;50.944;5.382;2023-12-04T08:45:36;19.70;58.40
43651;DHT22;29247;50.944;5.382;2023-12-04T08:48:04;19.70;58.40
43651;DHT22;29247;50.944;5.382;2023-12-04T08:50:32;19.80;58.40
43651;DHT22;29247;50.944;5.382;2023-12-04T08:52:58;19.80;58.30
43651;DHT22;29247;50.944;5.382;2023-12-04T08:55:24;19.80;58.20
43651;DHT22;29247;50.944;5.382;2023-12-04T08:57:49;19.90;58.10
43651;DHT22;29247;50.944;5.382;2023-12-04T09:00:15;19.90;58.00
43651;DHT22;29247;50.944;5.382;2023-12-04T09:02:41;19.90;58.00
43651;DHT22;29247;50.944;5.382;2023-12-04T09:05:07;19.90;57.90
43651;DHT22;29247;50.944;5.382;2023-12-04T09:07:33;20.00;57.90
43651;DHT22;29247;50.944;5.382;2023-12-04T09:10:00;20.00;57.80
43651;DHT22;29247;50.944;5.382;2023-12-04T09:12:26;20.00;57.70
43651;DHT22;29247;50.944;5.382;2023-12-04T09:14:54;20.10;57.60
43651;DHT22;29247;50.944;5.382;2023-12-04T09:17:22;20.10;57.60
43651;DHT22;29247;50.944;5.382;2023-12-04T09:19:48;20.10;58.10
43651;DHT22;29247;50.944;5.382;2023-12-04T09:22:14;20.10;57.40
43651;DHT22;29247;50.944;5.382;2023-12-04T09:24:39;20.20;57.40
43651;DHT22;29247;50.944;5.382;2023-12-04T09:27:07;20.20;57.40
43651;DHT22;29247;50.944;5.382;2023-12-04T09:29:33;20.20;57.30
43651;DHT22;29247;50.944;5.382;2023-12-04T09:31:59;20.20;57.20
43651;DHT22;29247;50.944;5.382;2023-12-04T09:34:25;20.30;57.20
43651;DHT22;29247;50.944;5.382;2023-12-04T09:36:51;20.30;57.10
43651;DHT22;29247;50.944;5.382;2023-12-04T09:39:19;20.30;57.10
43651;DHT22;29247;50.944;5.382;2023-12-04T09:41:45;20.30;57.60
43651;DHT22;29247;50.944;5.382;2023-12-04T09:44:12;20.30;56.90
43651;DHT22;29247;50.944;5.382;2023-12-04T09:46:38;20.40;56.90
43651;DHT22;29247;50.944;5.382;2023-12-04T09:49:04;20.40;56.80
43651;DHT22;29247;50.944;5.382;2023-12-04T09:51:30;20.40;56.80
43651;DHT22;29247;50.944;5.382;2023-12-04T09:53:57;20.40;56.80
43651;DHT22;29247;50.944;5.382;2023-12-04T09:56:25;20.40;56.70
43651;DHT22;29247;50.944;5.382;2023-12-04T09:59:01;20.50;56.70
43651;DHT22;29247;50.944;5.382;2023-12-04T10:01:29;20.50;56.60
43651;DHT22;29247;50.944;5.382;2023-12-04T10:03:57;20.50;56.60
43651;DHT22;29247;50.944;5.382;2023-12-04T10:06:29;20.50;56.60
43651;DHT22;29247;50.944;5.382;2023-12-04T10:08:58;20.50;56.50
43651;DHT22;29247;50.944;5.382;2023-12-04T10:11:25;20.60;56.50
43651;DHT22;29247;50.944;5.382;2023-12-04T10:13:52;20.60;56.40
43651;DHT22;29247;50.944;5.382;2023-12-04T10:16:34;20.60;56.40
43651;DHT22;29247;50.944;5.382;2023-12-04T10:19:30;20.60;56.40
43651;DHT22;29247;50.944;5.382;2023-12-04T10:21:59;20.60;56.30
43651;DHT22;29247;50.944;5.382;2023-12-04T10:24:28;20.60;56.30
43651;DHT22;29247;50.944;5.382;2023-12-04T10:26:57;20.60;56.30
43651;DHT22;29247;50.944;5.382;2023-12-04T10:29:23;20.60;56.20
43651;DHT22;29247;50.944;5.382;2023-12-04T10:31:52;20.70;56.20
43651;DHT22;29247;50.944;5.382;2023-12-04T10:34:22;20.70;56.20
43651;DHT22;29247;50.944;5.382;2023-12-04T10:36:51;20.70;56.10
43651;DHT22;29247;50.944;5.382;2023-12-04T10:39:17;20.70;56.10
43651;DHT22;29247;50.944;5.382;2023-12-04T10:41:44;20.70;56.10
43651;DHT22;29247;50.944;5.382;2023-12-04T10:44:10;20.70;56.10
43651;DHT22;29247;50.944;5.382;2023-12-04T10:46:41;20.80;56.10
43651;DHT22;29247;50.944;5.382;2023-12-04T10:49:09;20.80;56.00
43651;DHT22;29247;50.944;5.382;2023-12-04T10:51:35;20.80;55.90
43651;DHT22;29247;50.944;5.382;2023-12-04T10:54:03;20.80;55.80
43651;DHT22;29247;50.944;5.382;2023-12-04T10:56:36;20.80;55.80
43651;DHT22;29247;50.944;5.382;2023-12-04T10:59:08;20.80;55.60
43651;DHT22;29247;50.944;5.382;2023-12-04T11:01:36;20.80;55.60
43651;DHT22;29247;50.944;5.382;2023-12-04T11:04:03;20.90;55.60
43651;DHT22;29247;50.944;5.382;2023-12-04T11:06:35;20.90;55.60
43651;DHT22;29247;50.944;5.382;2023-12-04T11:09:03;20.90;55.40
43651;DHT22;29247;50.944;5.382;2023-12-04T11:11:34;20.90;55.40
43651;DHT22;29247;50.944;5.382;2023-12-04T11:14:03;20.90;55.40
43651;DHT22;29247;50.944;5.382;2023-12-04T11:22:00;20.90;55.20
43651;DHT22;29247;50.944;5.382;2023-12-04T11:24:27;20.90;55.20
43651;DHT22;29247;50.944;5.382;2023-12-04T11:26:53;20.90;55.20
43651;DHT22;29247;50.944;5.382;2023-12-04T11:29:22;20.90;55.10
43651;DHT22;29247;50.944;5.382;2023-12-04T11:31:52;21.00;55.20
43651;DHT22;29247;50.944;5.382;2023-12-04T11:34:20;21.00;55.10
43651;DHT22;29247;50.944;5.382;2023-12-04T11:36:48;21.00;55.00
43651;DHT22;29247;50.944;5.382;2023-12-04T11:39:13;21.00;55.00
43651;DHT22;29247;50.944;5.382;2023-12-04T11:41:42;21.00;54.90
43651;DHT22;29247;50.944;5.382;2023-12-04T11:44:12;21.00;54.90
43651;DHT22;29247;50.944;5.382;2023-12-04T11:46:43;21.00;54.80
43651;DHT22;29247;50.944;5.382;2023-12-04T11:49:29;21.00;54.80
43651;DHT22;29247;50.944;5.382;2023-12-04T11:52:01;21.00;54.70
43651;DHT22;29247;50.944;5.382;2023-12-04T11:54:56;21.10;54.60
43651;DHT22;29247;50.944;5.382;2023-12-04T11:57:26;21.10;54.60
43651;DHT22;29247;50.944;5.382;2023-12-04T12:03:05;21.10;54.60
43651;DHT22;29247;50.944;5.382;2023-12-04T12:05:33;21.10;54.50
43651;DHT22;29247;50.944;5.382;2023-12-04T12:08:02;21.10;54.50
43651;DHT22;29247;50.944;5.382;2023-12-04T12:10:28;21.10;54.50
43651;DHT22;29247;50.944;5.382;2023-12-04T12:12:55;21.10;54.40
43651;DHT22;29247;50.944;5.382;2023-12-04T12:15:21;21.10;54.30
43651;DHT22;29247;50.944;5.382;2023-12-04T12:17:46;21.10;54.30
43651;DHT22;29247;50.944;5.382;2023-12-04T12:20:13;21.10;54.20
43651;DHT22;29247;50.944;5.382;2023-12-04T12:22:39;21.10;54.20
43651;DHT22;29247;50.944;5.382;2023-12-04T12:25:10;21.10;54.00
43651;DHT22;29247;50.944;5.382;2023-12-04T12:27:37;21.10;53.30
43651;DHT22;29247;50.944;5.382;2023-12-04T12:30:03;21.00;52.90
43651;DHT22;29247;50.944;5.382;2023-12-04T12:32:31;21.00;53.00
43651;DHT22;29247;50.944;5.382;2023-12-04T12:34:59;20.90;53.20
43651;DHT22;29247;50.944;5.382;2023-12-04T12:37:25;20.90;53.50
43651;DHT22;29247;50.944;5.382;2023-12-04T12:39:54;20.90;53.60
43651;DHT22;29247;50.944;5.382;2023-12-04T12:42:27;20.90;53.50
43651;DHT22;29247;50.944;5.382;2023-12-04T12:44:54;20.90;53.40
43651;DHT22;29247;50.944;5.382;2023-12-04T12:47:20;20.90;53.50
43651;DHT22;29247;50.944;5.382;2023-12-04T12:49:46;20.80;53.50
43651;DHT22;29247;50.944;5.382;2023-12-04T12:52:12;20.80;53.50
43651;DHT22;29247;50.944;5.382;2023-12-04T12:54:40;20.80;53.30
43651;DHT22;29247;50.944;5.382;2023-12-04T12:57:06;20.70;53.20
43651;DHT22;29247;50.944;5.382;2023-12-04T12:59:34;20.70;53.20
43651;DHT22;29247;50.944;5.382;2023-12-04T13:02:01;20.60;53.30
43651;DHT22;29247;50.944;5.382;2023-12-04T13:04:40;20.50;53.20
43651;DHT22;29247;50.944;5.382;2023-12-04T13:07:06;20.50;53.20
43651;DHT22;29247;50.944;5.382;2023-12-04T13:09:33;20.40;53.20
43651;DHT22;29247;50.944;5.382;2023-12-04T13:12:01;20.40;53.20
43651;DHT22;29247;50.944;5.382;2023-12-04T13:14:26;20.30;53.30
43651;DHT22;29247;50.944;5.382;2023-12-04T13:16:52;20.30;53.50
43651;DHT22;29247;50.944;5.382;2023-12-04T13:19:20;20.20;53.60
43651;DHT22;29247;50.944;5.382;2023-12-04T13:21:48;20.20;53.70
43651;DHT22;29247;50.944;5.382;2023-12-04T13:24:16;20.20;53.70
43651;DHT22;29247;50.944;5.382;2023-12-04T13:26:45;20.20;53.90
43651;DHT22;29247;50.944;5.382;2023-12-04T13:29:13;20.10;53.90
43651;DHT22;29247;50.944;5.382;2023-12-04T13:31:41;20.10;54.60
43651;DHT22;29247;50.944;5.382;2023-12-04T13:34:07;20.00;54.10
43651;DHT22;29247;50.944;5.382;2023-12-04T13:36:34;20.00;54.50
43651;DHT22;29247;50.944;5.382;2023-12-04T13:39:04;20.00;54.80
43651;DHT22;29247;50.944;5.382;2023-12-04T13:41:30;20.00;55.10
43651;DHT22;29247;50.944;5.382;2023-12-04T13:44:15;20.00;55.20
43651;DHT22;29247;50.944;5.382;2023-12-04T13:46:41;19.90;55.20
43651;DHT22;29247;50.944;5.382;2023-12-04T13:49:06;20.00;55.20
43651;DHT22;29247;50.944;5.382;2023-12-04T13:51:32;20.00;55.20
43651;DHT22;29247;50.944;5.382;2023-12-04T13:54:02;19.90;55.20
43651;DHT22;29247;50.944;5.382;2023-12-04T13:56:35;19.90;55.20
43651;DHT22;29247;50.944;5.382;2023-12-04T13:59:10;19.90;55.30
43651;DHT22;29247;50.944;5.382;2023-12-04T14:01:44;20.00;55.50
43651;DHT22;29247;50.944;5.382;2023-12-04T14:04:10;20.00;55.60
43651;DHT22;29247;50.944;5.382;2023-12-04T14:06:35;20.00;55.50
43651;DHT22;29247;50.944;5.382;2023-12-04T14:09:03;20.10;55.50
43651;DHT22;29247;50.944;5.382;2023-12-04T14:11:36;20.10;55.60
43651;DHT22;29247;50.944;5.382;2023-12-04T14:14:04;20.10;55.60
43651;DHT22;29247;50.944;5.382;2023-12-04T14:16:32;20.10;55.60
43651;DHT22;29247;50.944;5.382;2023-12-04T14:18:58;20.20;55.60
43651;DHT22;29247;50.944;5.382;2023-12-04T14:21:24;20.20;55.60
43651;DHT22;29247;50.944;5.382;2023-12-04T14:23:50;20.20;55.60
43651;DHT22;29247;50.944;5.382;2023-12-04T14:26:15;20.30;55.80
43651;DHT22;29247;50.944;5.382;2023-12-04T14:28:44;20.40;55.80
43651;DHT22;29247;50.944;5.382;2023-12-04T14:31:10;20.30;55.60
43651;DHT22;29247;50.944;5.382;2023-12-04T14:33:36;20.40;55.60
43651;DHT22;29247;50.944;5.382;2023-12-04T14:36:04;20.40;55.70
43651;DHT22;29247;50.944;5.382;2023-12-04T14:38:30;20.40;55.70
43651;DHT22;29247;50.944;5.382;2023-12-04T14:40:58;20.40;55.60
43651;DHT22;29247;50.944;5.382;2023-12-04T14:43:24;20.40;55.60
43651;DHT22;29247;50.944;5.382;2023-12-04T14:45:50;20.40;55.20
43651;DHT22;29247;50.944;5.382;2023-12-04T14:48:16;20.40;55.00
43651;DHT22;29247;50.944;5.382;2023-12-04T14:50:44;20.40;54.90
43651;DHT22;29247;50.944;5.382;2023-12-04T14:53:09;20.40;55.00
43651;DHT22;29247;50.944;5.382;2023-12-04T14:55:43;20.40;55.00
43651;DHT22;29247;50.944;5.382;2023-12-04T14:58:27;20.40;55.00
43651;DHT22;29247;50.944;5.382;2023-12-04T15:01:05;20.40;55.10
43651;DHT22;29247;50.944;5.382;2023-12-04T15:03:31;20.30;55.70
43651;DHT22;29247;50.944;5.382;2023-12-04T15:06:17;20.30;55.10
43651;DHT22;29247;50.944;5.382;2023-12-04T15:09:05;20.30;55.20
43651;DHT22;29247;50.944;5.382;2023-12-04T15:11:54;20.30;55.30
43651;DHT22;29247;50.944;5.382;2023-12-04T15:14:32;20.30;55.30
43651;DHT22;29247;50.944;5.382;2023-12-04T15:17:01;20.30;55.40
43651;DHT22;29247;50.944;5.382;2023-12-04T15:19:47;20.30;55.40
43651;DHT22;29247;50.944;5.382;2023-12-04T15:22:33;20.30;55.40
43651;DHT22;29247;50.944;5.382;2023-12-04T15:24:59;20.30;55.40
43651;DHT22;29247;50.944;5.382;2023-12-04T15:27:25;20.30;55.40
43651;DHT22;29247;50.944;5.382;2023-12-04T15:29:50;20.30;55.50
43651;DHT22;29247;50.944;5.382;2023-12-04T15:32:16;20.30;55.50
43651;DHT22;29247;50.944;5.382;2023-12-04T15:34:42;20.30;55.50
43651;DHT22;29247;50.944;5.382;2023-12-04T15:37:10;20.40;55.60
43651;DHT22;29247;50.944;5.382;2023-12-04T15:39:36;20.30;55.50
43651;DHT22;29247;50.944;5.382;2023-12-04T15:42:06;20.30;55.50